createdAt,value
2023-12-07T15:48:37.742Z,94993.00
2023-12-07T15:49:37.928Z,94990.00
2023-12-07T15:50:37.690Z,94989.00
2023-12-07T15:51:37.630Z,94988.00
2023-12-07T15:52:37.706Z,94990.00
2023-12-07T15:53:37.667Z,94988.00
2023-12-07T15:54:40.313Z,94986.00
2023-12-07T15:55:37.668Z,94984.00
2023-12-07T15:56:37.677Z,94985.00
2023-12-07T15:57:37.650Z,94989.00
2023-12-07T15:58:37.648Z,94980.00
2023-12-07T15:59:37.925Z,94983.00
2023-12-07T16:00:37.693Z,94987.00
2023-12-07T16:01:37.735Z,94985.00
2023-12-07T16:02:37.671Z,94985.00
2023-12-07T16:03:37.661Z,94991.00
2023-12-07T16:04:38.012Z,94997.00
2023-12-07T16:05:37.779Z,94997.00
2023-12-07T16:06:37.784Z,94999.00
2023-12-07T16:07:37.667Z,94992.00
2023-12-07T16:08:37.822Z,94995.00
2023-12-07T16:09:38.311Z,94992.00
2023-12-07T16:10:37.695Z,94993.00
2023-12-07T16:11:37.718Z,94987.00
2023-12-07T16:12:37.704Z,94984.00
2023-12-07T16:13:37.672Z,94993.00
2023-12-07T16:14:37.780Z,94992.00
2023-12-07T16:15:37.707Z,94987.00
2023-12-07T16:16:37.705Z,94987.00
2023-12-07T16:17:37.821Z,94995.00
2023-12-07T16:18:37.806Z,94990.00
2023-12-07T16:19:37.865Z,94988.00
2023-12-07T16:20:37.766Z,94984.00
2023-12-07T16:21:37.714Z,94984.00
2023-12-07T16:22:37.698Z,94979.00
2023-12-07T16:23:37.770Z,94980.00
2023-12-07T16:24:37.757Z,94979.00
2023-12-07T16:25:37.712Z,94982.00
2023-12-07T16:26:37.763Z,94982.00
2023-12-07T16:27:37.693Z,94984.00
2023-12-07T16:28:37.725Z,94984.00
2023-12-07T16:29:37.755Z,94988.00
2023-12-07T16:30:46.072Z,94985.00
2023-12-07T16:31:38.790Z,94986.00
2023-12-07T16:32:37.831Z,94996.00
2023-12-07T16:33:37.854Z,94992.00
2023-12-07T16:34:37.894Z,94997.00
2023-12-07T16:35:37.790Z,94994.00
2023-12-07T16:36:38.051Z,94994.00
2023-12-07T16:37:37.761Z,95001.00
2023-12-07T16:38:37.792Z,94996.00
2023-12-07T16:39:37.761Z,94998.00
2023-12-07T16:40:37.786Z,95001.00
2023-12-07T16:41:42.066Z,94998.00
2023-12-07T16:42:38.780Z,95000.00
2023-12-07T16:43:37.758Z,94999.00
2023-12-07T16:44:37.769Z,95005.00
2023-12-07T16:45:37.777Z,95002.00
2023-12-07T16:46:37.784Z,94999.00
2023-12-07T16:47:37.858Z,94998.00
2023-12-07T16:48:37.919Z,94998.00
2023-12-07T16:49:37.919Z,94996.00
2023-12-07T16:50:37.798Z,94995.00
2023-12-07T16:51:40.140Z,94996.00
2023-12-07T16:52:44.753Z,94989.00
2023-12-07T16:53:39.080Z,94989.00
2023-12-07T16:54:37.984Z,94990.00
2023-12-07T16:55:37.983Z,94988.00
2023-12-07T16:56:38.256Z,94992.00
2023-12-07T16:57:37.960Z,94992.00
2023-12-07T16:58:37.992Z,94990.00
2023-12-07T16:59:38.007Z,94998.00
2023-12-07T17:00:38.060Z,94990.00
2023-12-07T17:01:38.022Z,94989.00
2023-12-07T17:02:38.286Z,94988.00
2023-12-07T17:03:39.009Z,94992.00
2023-12-07T17:04:38.277Z,94991.00
2023-12-07T17:05:38.278Z,94991.00
2023-12-07T17:06:46.428Z,94990.00
2023-12-07T17:07:39.347Z,94991.00
2023-12-07T17:08:38.449Z,94995.00
2023-12-07T17:09:38.405Z,94995.00
2023-12-07T17:10:38.348Z,94995.00
2023-12-07T17:11:38.542Z,94994.00
2023-12-07T17:12:38.349Z,94995.00
2023-12-07T17:13:38.329Z,94990.00
2023-12-07T17:14:38.355Z,94993.00
2023-12-07T17:15:38.483Z,94993.00
2023-12-07T17:16:38.305Z,94993.00
2023-12-07T17:17:38.455Z,94992.00
2023-12-07T17:18:38.608Z,94990.00
2023-12-07T17:19:45.451Z,94987.00
2023-12-07T17:20:39.466Z,94984.00
2023-12-07T17:21:38.372Z,94984.00
2023-12-07T17:22:38.367Z,94986.00
2023-12-07T17:23:38.444Z,94990.00
2023-12-07T17:24:38.383Z,94988.00
2023-12-07T17:25:38.344Z,94986.00
2023-12-07T17:26:42.362Z,94994.00
2023-12-07T17:27:39.526Z,94989.00
2023-12-07T17:28:38.363Z,94990.00
2023-12-07T17:29:38.409Z,94991.00
2023-12-07T17:30:38.364Z,94989.00
2023-12-07T17:31:38.385Z,94990.00
2023-12-07T17:32:38.399Z,94988.00
2023-12-07T17:33:38.490Z,94987.00
2023-12-07T17:34:38.507Z,94987.00
2023-12-07T17:35:38.468Z,94988.00
2023-12-07T17:36:38.393Z,94988.00
2023-12-07T17:37:38.409Z,94989.00
2023-12-07T17:38:38.411Z,94987.00
2023-12-07T17:39:38.393Z,94987.00
2023-12-07T17:40:38.383Z,94988.00
2023-12-07T17:41:38.496Z,94988.00
2023-12-07T17:42:38.407Z,94989.00
2023-12-07T17:43:38.571Z,94988.00
2023-12-07T17:44:38.480Z,94983.00
2023-12-07T17:45:38.428Z,94979.00
2023-12-07T17:46:38.384Z,94975.00
2023-12-07T17:47:38.495Z,94971.00
2023-12-07T17:48:38.506Z,94972.00
2023-12-07T17:49:38.444Z,94969.00
2023-12-07T17:50:38.485Z,94967.00
2023-12-07T17:51:38.414Z,94965.00
2023-12-07T17:52:38.737Z,94962.00
2023-12-07T17:53:38.456Z,94965.00
2023-12-07T17:54:38.454Z,94963.00
2023-12-07T17:55:38.446Z,94966.00
2023-12-07T17:56:38.444Z,94958.00
2023-12-07T17:57:38.469Z,94958.00
2023-12-07T17:58:38.481Z,94961.00
2023-12-07T17:59:38.523Z,94961.00
2023-12-07T18:00:38.534Z,94959.00
2023-12-07T18:01:38.531Z,94960.00
2023-12-07T18:02:38.580Z,94956.00
2023-12-07T18:03:38.636Z,94958.00
2023-12-07T18:04:38.661Z,94959.00
2023-12-07T18:05:38.757Z,94958.00
2023-12-07T18:06:38.818Z,94958.00
2023-12-07T18:07:38.737Z,94958.00
2023-12-07T18:08:38.837Z,94956.00
2023-12-07T18:09:38.801Z,94955.00
2023-12-07T18:10:38.863Z,94958.00
2023-12-07T18:11:38.936Z,94955.00
2023-12-07T18:12:38.907Z,94950.00
2023-12-07T18:13:38.937Z,94950.00
2023-12-07T18:14:38.997Z,94949.00
2023-12-07T18:15:38.987Z,94946.00
2023-12-07T18:16:39.040Z,94946.00
2023-12-07T18:17:39.203Z,94945.00
2023-12-07T18:18:39.242Z,94944.00
2023-12-07T18:19:39.244Z,94943.00
2023-12-07T18:20:39.285Z,94939.00
2023-12-07T18:21:39.274Z,94939.00
2023-12-07T18:22:39.350Z,94938.00
2023-12-07T18:23:39.385Z,94936.00
2023-12-07T18:24:39.403Z,94936.00
2023-12-07T18:25:39.486Z,94942.00
2023-12-07T18:26:39.542Z,94935.00
2023-12-07T18:27:39.520Z,94940.00
2023-12-07T18:28:39.696Z,94940.00
2023-12-07T18:29:39.667Z,94938.00
2023-12-07T18:30:39.694Z,94938.00
2023-12-07T18:31:39.752Z,94939.00
2023-12-07T18:32:39.837Z,94938.00
2023-12-07T18:33:39.886Z,94938.00
2023-12-07T18:34:39.940Z,94936.00
2023-12-07T18:35:40.185Z,94935.00
2023-12-07T18:36:40.029Z,94931.00
2023-12-07T18:37:41.572Z,94931.00
2023-12-07T18:38:40.143Z,94932.00
2023-12-07T18:39:40.106Z,94929.00
2023-12-07T18:40:40.176Z,94930.00
2023-12-07T18:41:40.268Z,94929.00
2023-12-07T18:42:40.302Z,94930.00
2023-12-07T18:43:40.352Z,94928.00
2023-12-07T18:44:40.474Z,94929.00
2023-12-07T18:45:40.433Z,94929.00
2023-12-07T18:46:40.525Z,94928.00
2023-12-07T18:47:40.731Z,94928.00
2023-12-07T18:48:40.764Z,94929.00
2023-12-07T18:49:40.736Z,94929.00
2023-12-07T18:50:40.720Z,94931.00
2023-12-07T18:51:40.780Z,94931.00
2023-12-07T18:52:40.820Z,94932.00
2023-12-07T18:53:40.906Z,94931.00
2023-12-07T18:54:41.000Z,94933.00
2023-12-07T18:55:41.055Z,94932.00
2023-12-07T18:56:41.148Z,94933.00
2023-12-07T18:57:41.171Z,94937.00
2023-12-07T18:58:41.231Z,94931.00
2023-12-07T18:59:41.290Z,94933.00
2023-12-07T19:00:41.352Z,94934.00
2023-12-07T19:01:41.392Z,94932.00
2023-12-07T19:02:41.485Z,94932.00
2023-12-07T19:03:41.518Z,94930.00
2023-12-07T19:04:41.703Z,94933.00
2023-12-07T19:05:41.744Z,94931.00
2023-12-07T19:06:41.730Z,94929.00
2023-12-07T19:07:41.810Z,94933.00
2023-12-07T19:08:41.867Z,94928.00
2023-12-07T19:09:41.915Z,94924.00
2023-12-07T19:10:41.988Z,94921.00
2023-12-07T19:11:42.034Z,94917.00
2023-12-07T19:12:42.140Z,94911.00
2023-12-07T19:13:42.187Z,94910.00
2023-12-07T19:14:42.355Z,94905.00
2023-12-07T19:15:42.361Z,94908.00
2023-12-07T19:16:42.435Z,94906.00
2023-12-07T19:17:42.569Z,94907.00
2023-12-07T19:18:42.621Z,94905.00
2023-12-07T19:19:42.639Z,94901.00
2023-12-07T19:20:42.739Z,94897.00
2023-12-07T19:21:43.132Z,94899.00
2023-12-07T19:22:42.828Z,94902.00
2023-12-07T19:23:42.920Z,94903.00
2023-12-07T19:24:42.898Z,94903.00
2023-12-07T19:25:42.943Z,94905.00
2023-12-07T19:26:43.098Z,94910.00
2023-12-07T19:27:43.060Z,94913.00
2023-12-07T19:28:43.120Z,94916.00
2023-12-07T19:29:43.213Z,94920.00
2023-12-07T19:30:43.227Z,94922.00
2023-12-07T19:31:43.222Z,94924.00
2023-12-07T19:32:43.404Z,94926.00
2023-12-07T19:33:43.473Z,94927.00
2023-12-07T19:34:43.455Z,94929.00
2023-12-07T19:35:43.492Z,94928.00
2023-12-07T19:36:43.563Z,94928.00
2023-12-07T19:37:43.549Z,94927.00
2023-12-07T19:38:43.564Z,94928.00
2023-12-07T19:39:43.556Z,94929.00
2023-12-07T19:40:43.609Z,94925.00
2023-12-07T19:41:43.637Z,94923.00
2023-12-07T19:42:43.635Z,94918.00
2023-12-07T19:43:43.684Z,94917.00
2023-12-07T19:44:43.706Z,94919.00
2023-12-07T19:45:43.703Z,94920.00
2023-12-07T19:46:43.814Z,94921.00
2023-12-07T19:47:44.003Z,94915.00
2023-12-07T19:48:46.506Z,94910.00
2023-12-07T19:49:44.072Z,94906.00
2023-12-07T19:50:44.262Z,94908.00
2023-12-07T19:51:43.949Z,94904.00
2023-12-07T19:52:43.962Z,94906.00
2023-12-07T19:53:43.964Z,94903.00
2023-12-07T19:54:43.898Z,94905.00
2023-12-07T19:55:43.920Z,94902.00
2023-12-07T19:56:43.932Z,94900.00
2023-12-07T19:57:43.990Z,94897.00
2023-12-07T19:58:43.916Z,94898.00
2023-12-07T19:59:44.006Z,94898.00
2023-12-07T20:00:44.073Z,94895.00
2023-12-07T20:01:43.987Z,94895.00
2023-12-07T20:02:43.963Z,94893.00
2023-12-07T20:03:43.983Z,94897.00
2023-12-07T20:04:44.019Z,94891.00
2023-12-07T20:05:43.964Z,94894.00
2023-12-07T20:06:44.049Z,94892.00
2023-12-07T20:07:43.958Z,94890.00
2023-12-07T20:08:44.010Z,94889.00
2023-12-07T20:09:43.932Z,94886.00
2023-12-07T20:10:44.008Z,94886.00
2023-12-07T20:11:44.102Z,94886.00
2023-12-07T20:12:43.964Z,94887.00
2023-12-07T20:13:43.968Z,94886.00
2023-12-07T20:14:43.991Z,94884.00
2023-12-07T20:15:43.976Z,94885.00
2023-12-07T20:16:43.956Z,94879.00
2023-12-07T20:17:44.224Z,94879.00
2023-12-07T20:18:44.052Z,94880.00
2023-12-07T20:19:44.017Z,94881.00
2023-12-07T20:20:43.988Z,94881.00
2023-12-07T20:21:43.978Z,94884.00
2023-12-07T20:22:43.961Z,94889.00
2023-12-07T20:23:44.078Z,94887.00
2023-12-07T20:24:43.980Z,94886.00
2023-12-07T20:25:44.004Z,94884.00
2023-12-07T20:26:44.041Z,94882.00
2023-12-07T20:27:43.959Z,94883.00
2023-12-07T20:28:44.002Z,94883.00
2023-12-07T20:29:44.008Z,94882.00
2023-12-07T20:30:43.984Z,94884.00
2023-12-07T20:31:44.013Z,94882.00
2023-12-07T20:32:44.114Z,94883.00
2023-12-07T20:33:44.033Z,94883.00
2023-12-07T20:34:44.025Z,94884.00
2023-12-07T20:35:44.031Z,94885.00
2023-12-07T20:36:43.979Z,94885.00
2023-12-07T20:37:44.020Z,94882.00
2023-12-07T20:38:44.060Z,94883.00
2023-12-07T20:39:43.995Z,94885.00
2023-12-07T20:40:44.027Z,94884.00
2023-12-07T20:41:44.055Z,94883.00
2023-12-07T20:42:43.992Z,94885.00
2023-12-07T20:43:43.992Z,94884.00
2023-12-07T20:44:44.004Z,94885.00
2023-12-07T20:45:44.036Z,94885.00
2023-12-07T20:46:44.024Z,94885.00
2023-12-07T20:47:44.223Z,94888.00
2023-12-07T20:48:44.087Z,94887.00
2023-12-07T20:49:43.996Z,94888.00
2023-12-07T20:50:44.056Z,94887.00
2023-12-07T20:51:44.008Z,94890.00
2023-12-07T20:52:44.026Z,94891.00
2023-12-07T20:53:44.034Z,94892.00
2023-12-07T20:54:44.871Z,94891.00
2023-12-07T20:55:44.012Z,94891.00
2023-12-07T20:56:44.451Z,94890.00
2023-12-07T20:57:44.019Z,94891.00
2023-12-07T20:58:44.001Z,94892.00
2023-12-07T20:59:44.045Z,94893.00
2023-12-07T21:00:44.060Z,94898.00
2023-12-07T21:01:44.048Z,94897.00
2023-12-07T21:02:44.050Z,94897.00
2023-12-07T21:03:44.125Z,94898.00
2023-12-07T21:04:44.034Z,94899.00
2023-12-07T21:05:44.137Z,94902.00
2023-12-07T21:06:44.046Z,94899.00
2023-12-07T21:07:44.033Z,94901.00
2023-12-07T21:08:44.136Z,94898.00
2023-12-07T21:09:43.996Z,94896.00
2023-12-07T21:10:44.039Z,94898.00
2023-12-07T21:11:44.100Z,94899.00
2023-12-07T21:12:44.029Z,94900.00
2023-12-07T21:13:44.064Z,94902.00
2023-12-07T21:14:44.113Z,94902.00
2023-12-07T21:15:44.037Z,94903.00
2023-12-07T21:16:44.040Z,94905.00
2023-12-07T21:17:44.102Z,94903.00
2023-12-07T21:18:44.150Z,94901.00
2023-12-07T21:19:44.055Z,94895.00
2023-12-07T21:20:44.151Z,94890.00
2023-12-07T21:21:44.053Z,94888.00
2023-12-07T21:22:44.046Z,94886.00
2023-12-07T21:23:44.069Z,94883.00
2023-12-07T21:24:44.110Z,94881.00
2023-12-07T21:25:44.109Z,94881.00
2023-12-07T21:26:44.162Z,94879.00
2023-12-07T21:27:44.398Z,94878.00
2023-12-07T21:28:44.200Z,94874.00
2023-12-07T21:29:44.237Z,94870.00
2023-12-07T21:30:44.331Z,94872.00
2023-12-07T21:31:44.243Z,94873.00
2023-12-07T21:32:44.396Z,94871.00
2023-12-07T21:33:44.493Z,94868.00
2023-12-07T21:34:44.345Z,94867.00
2023-12-07T21:35:44.424Z,94867.00
2023-12-07T21:36:44.419Z,94863.00
2023-12-07T21:37:44.434Z,94861.00
2023-12-07T21:38:44.460Z,94855.00
2023-12-07T21:39:44.478Z,94853.00
2023-12-07T21:40:44.486Z,94853.00
2023-12-07T21:41:44.577Z,94849.00
2023-12-07T21:42:44.589Z,94849.00
2023-12-07T21:43:44.586Z,94842.00
2023-12-07T21:44:44.676Z,94835.00
2023-12-07T21:45:44.639Z,94827.00
2023-12-07T21:46:44.828Z,94822.00
2023-12-07T21:47:44.996Z,94823.00
2023-12-07T21:48:44.942Z,94822.00
2023-12-07T21:49:44.875Z,94824.00
2023-12-07T21:50:44.939Z,94821.00
2023-12-07T21:51:44.839Z,94821.00
2023-12-07T21:52:44.909Z,94819.00
2023-12-07T21:53:44.986Z,94817.00
2023-12-07T21:54:44.952Z,94814.00
2023-12-07T21:55:44.998Z,94813.00
2023-12-07T21:56:45.082Z,94813.00
2023-12-07T21:57:45.035Z,94809.00
2023-12-07T21:58:45.077Z,94809.00
2023-12-07T21:59:45.102Z,94806.00
2023-12-07T22:00:45.179Z,94804.00
2023-12-07T22:01:45.203Z,94800.00
2023-12-07T22:02:45.213Z,94797.00
2023-12-07T22:03:45.301Z,94795.00
2023-12-07T22:04:45.326Z,94791.00
2023-12-07T22:05:45.401Z,94787.00
2023-12-07T22:06:45.413Z,94783.00
2023-12-07T22:07:45.411Z,94781.00
2023-12-07T22:08:45.442Z,94783.00
2023-12-07T22:09:45.508Z,94779.00
2023-12-07T22:10:45.535Z,94778.00
2023-12-07T22:11:45.709Z,94776.00
2023-12-07T22:12:45.651Z,94775.00
2023-12-07T22:13:45.650Z,94773.00
2023-12-07T22:14:45.708Z,94770.00
2023-12-07T22:15:45.739Z,94773.00
2023-12-07T22:16:45.796Z,94775.00
2023-12-07T22:17:45.944Z,94774.00
2023-12-07T22:18:46.071Z,94775.00
2023-12-07T22:19:45.950Z,94774.00
2023-12-07T22:20:45.962Z,94773.00
2023-12-07T22:21:46.010Z,94775.00
2023-12-07T22:22:45.994Z,94773.00
2023-12-07T22:23:46.094Z,94771.00
2023-12-07T22:24:46.108Z,94773.00
2023-12-07T22:25:46.149Z,94775.00
2023-12-07T22:26:46.233Z,94775.00
2023-12-07T22:27:46.257Z,94776.00
2023-12-07T22:28:46.306Z,94777.00
2023-12-07T22:29:46.337Z,94774.00
2023-12-07T22:30:46.402Z,94774.00
2023-12-07T22:31:46.419Z,94774.00
2023-12-07T22:32:46.861Z,94779.00
2023-12-07T22:34:00.027Z,94781.00
2023-12-07T22:34:47.675Z,94781.00
2023-12-07T22:35:46.667Z,94779.00
2023-12-07T22:36:46.552Z,94775.00
2023-12-07T22:37:46.577Z,94774.00
2023-12-07T22:38:46.580Z,94777.00
2023-12-07T22:39:46.545Z,94777.00
2023-12-07T22:40:46.580Z,94778.00
2023-12-07T22:41:46.645Z,94779.00
2023-12-07T22:42:46.568Z,94778.00
2023-12-07T22:43:46.534Z,94775.00
2023-12-07T22:44:46.589Z,94772.00
2023-12-07T22:45:46.587Z,94765.00
2023-12-07T22:46:46.632Z,94760.00
2023-12-07T22:47:46.975Z,94760.00
2023-12-07T22:48:46.829Z,94758.00
2023-12-07T22:49:46.858Z,94759.00
2023-12-07T22:50:46.828Z,94756.00
2023-12-07T22:51:46.897Z,94749.00
2023-12-07T22:52:46.944Z,94747.00
2023-12-07T22:53:47.070Z,94747.00
2023-12-07T22:54:47.052Z,94745.00
2023-12-07T22:55:47.088Z,94745.00
2023-12-07T22:56:47.192Z,94744.00
2023-12-07T22:57:47.222Z,94741.00
2023-12-07T22:58:47.333Z,94740.00
2023-12-07T22:59:47.338Z,94742.00
2023-12-07T23:00:47.503Z,94744.00
2023-12-07T23:01:47.388Z,94743.00
2023-12-07T23:02:47.487Z,94742.00
2023-12-07T23:03:47.450Z,94741.00
2023-12-07T23:04:47.577Z,94742.00
2023-12-07T23:05:47.632Z,94742.00
2023-12-07T23:06:47.668Z,94744.00
2023-12-07T23:07:47.659Z,94746.00
2023-12-07T23:08:47.734Z,94746.00
2023-12-07T23:09:47.737Z,94746.00
2023-12-07T23:10:47.805Z,94742.00
2023-12-07T23:11:47.851Z,94744.00
2023-12-07T23:12:47.914Z,94741.00
2023-12-07T23:13:47.931Z,94738.00
2023-12-07T23:14:48.023Z,94734.00
2023-12-07T23:15:48.063Z,94731.00
2023-12-07T23:16:48.145Z,94730.00
2023-12-07T23:17:48.352Z,94729.00
2023-12-07T23:18:48.366Z,94732.00
2023-12-07T23:19:48.336Z,94732.00
2023-12-07T23:20:48.397Z,94733.00
2023-12-07T23:21:48.497Z,94732.00
2023-12-07T23:22:48.558Z,94731.00
2023-12-07T23:23:48.664Z,94733.00
2023-12-07T23:24:48.635Z,94734.00
2023-12-07T23:25:48.706Z,94738.00
2023-12-07T23:26:48.789Z,94740.00
2023-12-07T23:27:48.910Z,94734.00
2023-12-07T23:28:48.958Z,94730.00
2023-12-07T23:29:54.401Z,94727.00
2023-12-07T23:30:49.999Z,94730.00
2023-12-07T23:31:48.988Z,94729.00
2023-12-07T23:32:49.242Z,94729.00
2023-12-07T23:33:49.253Z,94730.00
2023-12-07T23:34:49.068Z,94731.00
2023-12-07T23:35:49.032Z,94729.00
2023-12-07T23:36:48.967Z,94727.00
2023-12-07T23:37:48.979Z,94725.00
2023-12-07T23:38:49.128Z,94728.00
2023-12-07T23:39:49.203Z,94731.00
2023-12-07T23:40:49.161Z,94729.00
2023-12-07T23:41:49.332Z,94725.00
2023-12-07T23:42:49.326Z,94724.00
2023-12-07T23:43:49.449Z,94722.00
2023-12-07T23:44:49.589Z,94725.00
2023-12-07T23:45:49.573Z,94724.00
2023-12-07T23:46:49.644Z,94723.00
2023-12-07T23:47:49.761Z,94722.00
2023-12-07T23:48:49.891Z,94724.00
2023-12-07T23:49:49.893Z,94724.00
2023-12-07T23:50:49.873Z,94716.00
2023-12-07T23:51:49.917Z,94712.00
2023-12-07T23:52:49.946Z,94712.00
2023-12-07T23:53:50.097Z,94715.00
2023-12-07T23:54:50.051Z,94718.00
2023-12-07T23:55:50.132Z,94714.00
2023-12-07T23:56:50.188Z,94713.00
2023-12-07T23:57:50.213Z,94711.00
2023-12-07T23:58:50.290Z,94702.00
2023-12-07T23:59:50.303Z,94702.00
